sensor_id;sensor_type;location;lat;lon;timestamp;P1;durP1;ratioP1;P2;durP2;ratioP2
35961;SDS011;22044;48.298;10.008;2023-05-13T00:02:17;7.13;;;5.33;;
35961;SDS011;22044;48.298;10.008;2023-05-13T00:05:02;5.50;;;5.00;;
35961;SDS011;22044;48.298;10.008;2023-05-13T00:07:48;6.40;;;5.73;;
35961;SDS011;22044;48.298;10.008;2023-05-13T00:10:34;6.17;;;5.57;;
35961;SDS011;22044;48.298;10.008;2023-05-13T00:13:21;6.33;;;5.73;;
35961;SDS011;22044;48.298;10.008;2023-05-13T00:16:07;7.23;;;5.47;;
35961;SDS011;22044;48.298;10.008;2023-05-13T00:18:52;7.17;;;6.20;;
35961;SDS011;22044;48.298;10.008;2023-05-13T00:21:38;7.20;;;5.73;;
35961;SDS011;22044;48.298;10.008;2023-05-13T00:24:24;6.90;;;6.20;;
35961;SDS011;22044;48.298;10.008;2023-05-13T00:27:10;6.70;;;6.10;;
35961;SDS011;22044;48.298;10.008;2023-05-13T00:29:57;7.50;;;6.27;;
35961;SDS011;22044;48.298;10.008;2023-05-13T00:32:43;6.97;;;6.17;;
35961;SDS011;22044;48.298;10.008;2023-05-13T00:35:28;6.63;;;6.00;;
35961;SDS011;22044;48.298;10.008;2023-05-13T00:38:14;6.37;;;5.77;;
35961;SDS011;22044;48.298;10.008;2023-05-13T00:41:00;6.50;;;5.90;;
35961;SDS011;22044;48.298;10.008;2023-05-13T00:43:47;7.33;;;6.73;;
35961;SDS011;22044;48.298;10.008;2023-05-13T00:46:34;8.70;;;6.77;;
35961;SDS011;22044;48.298;10.008;2023-05-13T00:49:19;7.43;;;6.73;;
35961;SDS011;22044;48.298;10.008;2023-05-13T00:52:05;7.17;;;6.47;;
35961;SDS011;22044;48.298;10.008;2023-05-13T00:54:51;7.73;;;7.00;;
35961;SDS011;22044;48.298;10.008;2023-05-13T00:57:37;7.17;;;6.27;;
35961;SDS011;22044;48.298;10.008;2023-05-13T01:00:24;6.87;;;6.27;;
35961;SDS011;22044;48.298;10.008;2023-05-13T01:03:12;6.80;;;6.20;;
35961;SDS011;22044;48.298;10.008;2023-05-13T01:06:03;6.70;;;5.80;;
35961;SDS011;22044;48.298;10.008;2023-05-13T01:08:56;6.43;;;5.83;;
35961;SDS011;22044;48.298;10.008;2023-05-13T01:11:44;6.37;;;5.77;;
35961;SDS011;22044;48.298;10.008;2023-05-13T01:14:34;5.83;;;5.17;;
35961;SDS011;22044;48.298;10.008;2023-05-13T01:17:27;4.60;;;4.20;;
35961;SDS011;22044;48.298;10.008;2023-05-13T01:20:19;4.63;;;4.23;;
35961;SDS011;22044;48.298;10.008;2023-05-13T01:23:08;4.77;;;4.27;;
35961;SDS011;22044;48.298;10.008;2023-05-13T01:25:54;5.30;;;4.03;;
35961;SDS011;22044;48.298;10.008;2023-05-13T01:28:43;3.90;;;3.53;;
35961;SDS011;22044;48.298;10.008;2023-05-13T01:31:29;4.63;;;4.00;;
35961;SDS011;22044;48.298;10.008;2023-05-13T01:34:16;4.37;;;3.40;;
35961;SDS011;22044;48.298;10.008;2023-05-13T01:37:03;3.80;;;3.40;;
35961;SDS011;22044;48.298;10.008;2023-05-13T01:39:51;3.17;;;2.97;;
35961;SDS011;22044;48.298;10.008;2023-05-13T01:42:37;5.57;;;3.73;;
35961;SDS011;22044;48.298;10.008;2023-05-13T01:45:22;5.27;;;3.50;;
35961;SDS011;22044;48.298;10.008;2023-05-13T01:48:08;3.33;;;3.03;;
35961;SDS011;22044;48.298;10.008;2023-05-13T01:51:01;5.67;;;3.53;;
35961;SDS011;22044;48.298;10.008;2023-05-13T01:53:47;3.60;;;3.30;;
35961;SDS011;22044;48.298;10.008;2023-05-13T01:56:34;3.67;;;3.37;;
35961;SDS011;22044;48.298;10.008;2023-05-13T01:59:21;4.20;;;3.80;;
35961;SDS011;22044;48.298;10.008;2023-05-13T02:02:06;3.30;;;3.00;;
35961;SDS011;22044;48.298;10.008;2023-05-13T02:04:52;3.90;;;3.50;;
35961;SDS011;22044;48.298;10.008;2023-05-13T02:07:38;3.87;;;3.40;;
35961;SDS011;22044;48.298;10.008;2023-05-13T02:10:23;4.50;;;3.20;;
35961;SDS011;22044;48.298;10.008;2023-05-13T02:13:11;3.50;;;3.20;;
35961;SDS011;22044;48.298;10.008;2023-05-13T02:15:56;4.23;;;3.60;;
35961;SDS011;22044;48.298;10.008;2023-05-13T02:18:42;4.07;;;3.73;;
35961;SDS011;22044;48.298;10.008;2023-05-13T02:21:27;3.87;;;3.47;;
35961;SDS011;22044;48.298;10.008;2023-05-13T02:24:14;6.07;;;3.97;;
35961;SDS011;22044;48.298;10.008;2023-05-13T02:27:00;4.70;;;4.23;;
35961;SDS011;22044;48.298;10.008;2023-05-13T02:29:47;5.10;;;3.97;;
35961;SDS011;22044;48.298;10.008;2023-05-13T02:32:33;5.87;;;4.30;;
35961;SDS011;22044;48.298;10.008;2023-05-13T02:35:18;4.70;;;4.13;;
35961;SDS011;22044;48.298;10.008;2023-05-13T02:38:07;6.13;;;4.40;;
35961;SDS011;22044;48.298;10.008;2023-05-13T02:40:53;4.70;;;4.30;;
35961;SDS011;22044;48.298;10.008;2023-05-13T02:43:41;6.47;;;4.50;;
35961;SDS011;22044;48.298;10.008;2023-05-13T02:46:28;4.10;;;3.70;;
35961;SDS011;22044;48.298;10.008;2023-05-13T02:49:14;4.20;;;3.80;;
35961;SDS011;22044;48.298;10.008;2023-05-13T02:52:00;5.87;;;4.20;;
35961;SDS011;22044;48.298;10.008;2023-05-13T02:54:50;4.33;;;3.80;;
35961;SDS011;22044;48.298;10.008;2023-05-13T02:57:39;5.40;;;4.00;;
35961;SDS011;22044;48.298;10.008;2023-05-13T03:00:24;4.73;;;4.27;;
35961;SDS011;22044;48.298;10.008;2023-05-13T03:03:11;4.53;;;4.13;;
35961;SDS011;22044;48.298;10.008;2023-05-13T03:05:57;4.00;;;3.60;;
35961;SDS011;22044;48.298;10.008;2023-05-13T03:08:42;5.23;;;3.97;;
35961;SDS011;22044;48.298;10.008;2023-05-13T03:11:29;4.40;;;4.00;;
35961;SDS011;22044;48.298;10.008;2023-05-13T03:14:16;4.07;;;3.77;;
35961;SDS011;22044;48.298;10.008;2023-05-13T03:17:02;4.03;;;3.63;;
35961;SDS011;22044;48.298;10.008;2023-05-13T03:19:49;5.03;;;4.53;;
35961;SDS011;22044;48.298;10.008;2023-05-13T03:22:35;4.17;;;3.87;;
35961;SDS011;22044;48.298;10.008;2023-05-13T03:25:21;5.37;;;3.83;;
35961;SDS011;22044;48.298;10.008;2023-05-13T03:28:12;7.20;;;4.20;;
35961;SDS011;22044;48.298;10.008;2023-05-13T03:31:00;4.10;;;3.70;;
35961;SDS011;22044;48.298;10.008;2023-05-13T03:33:49;4.10;;;3.70;;
35961;SDS011;22044;48.298;10.008;2023-05-13T03:36:36;4.77;;;4.27;;
35961;SDS011;22044;48.298;10.008;2023-05-13T03:39:22;4.83;;;4.33;;
35961;SDS011;22044;48.298;10.008;2023-05-13T03:42:09;4.23;;;3.73;;
35961;SDS011;22044;48.298;10.008;2023-05-13T03:44:55;4.90;;;4.10;;
35961;SDS011;22044;48.298;10.008;2023-05-13T03:47:41;4.40;;;4.00;;
35961;SDS011;22044;48.298;10.008;2023-05-13T03:50:31;4.73;;;4.23;;
35961;SDS011;22044;48.298;10.008;2023-05-13T03:53:19;6.73;;;3.63;;
35961;SDS011;22044;48.298;10.008;2023-05-13T03:56:04;4.83;;;3.97;;
35961;SDS011;22044;48.298;10.008;2023-05-13T03:58:50;4.90;;;4.37;;
35961;SDS011;22044;48.298;10.008;2023-05-13T04:01:36;5.13;;;4.20;;
35961;SDS011;22044;48.298;10.008;2023-05-13T04:04:21;5.07;;;4.57;;
35961;SDS011;22044;48.298;10.008;2023-05-13T04:07:08;5.87;;;4.33;;
35961;SDS011;22044;48.298;10.008;2023-05-13T04:09:55;4.50;;;4.10;;
35961;SDS011;22044;48.298;10.008;2023-05-13T04:12:41;4.57;;;4.07;;
35961;SDS011;22044;48.298;10.008;2023-05-13T04:15:26;4.30;;;3.90;;
35961;SDS011;22044;48.298;10.008;2023-05-13T04:18:14;4.30;;;3.60;;
35961;SDS011;22044;48.298;10.008;2023-05-13T04:21:04;6.10;;;4.03;;
35961;SDS011;22044;48.298;10.008;2023-05-13T04:23:50;4.53;;;4.13;;
35961;SDS011;22044;48.298;10.008;2023-05-13T04:26:37;4.50;;;3.70;;
35961;SDS011;22044;48.298;10.008;2023-05-13T04:29:24;4.40;;;4.00;;
35961;SDS011;22044;48.298;10.008;2023-05-13T04:32:10;6.80;;;4.60;;
35961;SDS011;22044;48.298;10.008;2023-05-13T04:34:58;4.83;;;4.23;;
35961;SDS011;22044;48.298;10.008;2023-05-13T04:37:47;5.47;;;4.43;;
35961;SDS011;22044;48.298;10.008;2023-05-13T04:40:34;5.53;;;4.30;;
35961;SDS011;22044;48.298;10.008;2023-05-13T04:43:26;5.20;;;4.70;;
35961;SDS011;22044;48.298;10.008;2023-05-13T04:46:14;5.57;;;4.97;;
35961;SDS011;22044;48.298;10.008;2023-05-13T04:49:00;5.20;;;4.70;;
35961;SDS011;22044;48.298;10.008;2023-05-13T04:51:46;6.67;;;5.63;;
35961;SDS011;22044;48.298;10.008;2023-05-13T04:54:31;9.50;;;6.23;;
35961;SDS011;22044;48.298;10.008;2023-05-13T04:57:19;6.47;;;5.20;;
35961;SDS011;22044;48.298;10.008;2023-05-13T05:00:07;5.87;;;5.10;;
35961;SDS011;22044;48.298;10.008;2023-05-13T05:02:56;6.77;;;5.23;;
35961;SDS011;22044;48.298;10.008;2023-05-13T05:05:42;8.33;;;6.03;;
35961;SDS011;22044;48.298;10.008;2023-05-13T05:08:30;7.60;;;5.80;;
35961;SDS011;22044;48.298;10.008;2023-05-13T05:11:16;7.60;;;6.00;;
35961;SDS011;22044;48.298;10.008;2023-05-13T05:14:02;7.23;;;6.53;;
35961;SDS011;22044;48.298;10.008;2023-05-13T05:16:49;11.00;;;6.90;;
35961;SDS011;22044;48.298;10.008;2023-05-13T05:19:34;9.13;;;7.23;;
35961;SDS011;22044;48.298;10.008;2023-05-13T05:22:20;7.37;;;6.67;;
35961;SDS011;22044;48.298;10.008;2023-05-13T05:25:06;12.50;;;7.93;;
35961;SDS011;22044;48.298;10.008;2023-05-13T05:27:52;7.90;;;7.10;;
35961;SDS011;22044;48.298;10.008;2023-05-13T05:30:38;8.27;;;7.47;;
35961;SDS011;22044;48.298;10.008;2023-05-13T05:33:30;8.07;;;7.27;;
35961;SDS011;22044;48.298;10.008;2023-05-13T05:36:16;8.50;;;7.33;;
35961;SDS011;22044;48.298;10.008;2023-05-13T05:39:02;9.03;;;7.97;;
35961;SDS011;22044;48.298;10.008;2023-05-13T05:41:50;9.80;;;7.40;;
35961;SDS011;22044;48.298;10.008;2023-05-13T05:44:36;10.80;;;8.50;;
35961;SDS011;22044;48.298;10.008;2023-05-13T05:47:21;10.40;;;7.60;;
35961;SDS011;22044;48.298;10.008;2023-05-13T05:50:09;9.83;;;7.97;;
35961;SDS011;22044;48.298;10.008;2023-05-13T05:52:55;11.17;;;8.03;;
35961;SDS011;22044;48.298;10.008;2023-05-13T05:55:41;12.67;;;9.10;;
35961;SDS011;22044;48.298;10.008;2023-05-13T05:58:27;12.03;;;7.60;;
35961;SDS011;22044;48.298;10.008;2023-05-13T06:01:15;10.37;;;8.50;;
35961;SDS011;22044;48.298;10.008;2023-05-13T06:04:01;11.37;;;8.33;;
35961;SDS011;22044;48.298;10.008;2023-05-13T06:06:48;10.63;;;9.00;;
35961;SDS011;22044;48.298;10.008;2023-05-13T06:09:34;11.37;;;8.83;;
35961;SDS011;22044;48.298;10.008;2023-05-13T06:12:20;11.17;;;8.10;;
35961;SDS011;22044;48.298;10.008;2023-05-13T06:15:06;10.20;;;9.10;;
35961;SDS011;22044;48.298;10.008;2023-05-13T06:17:53;9.37;;;8.33;;
35961;SDS011;22044;48.298;10.008;2023-05-13T06:20:39;10.50;;;9.23;;
35961;SDS011;22044;48.298;10.008;2023-05-13T06:23:26;12.37;;;10.10;;
35961;SDS011;22044;48.298;10.008;2023-05-13T06:26:12;13.27;;;10.10;;
35961;SDS011;22044;48.298;10.008;2023-05-13T06:28:57;10.90;;;9.63;;
35961;SDS011;22044;48.298;10.008;2023-05-13T06:31:44;11.07;;;9.87;;
35961;SDS011;22044;48.298;10.008;2023-05-13T06:34:30;12.80;;;9.83;;
35961;SDS011;22044;48.298;10.008;2023-05-13T06:37:16;13.43;;;9.73;;
35961;SDS011;22044;48.298;10.008;2023-05-13T06:40:04;8.83;;;7.67;;
35961;SDS011;22044;48.298;10.008;2023-05-13T06:42:56;8.83;;;7.93;;
35961;SDS011;22044;48.298;10.008;2023-05-13T06:45:48;10.77;;;9.17;;
35961;SDS011;22044;48.298;10.008;2023-05-13T06:48:33;11.57;;;9.47;;
35961;SDS011;22044;48.298;10.008;2023-05-13T06:51:21;10.70;;;9.57;;
35961;SDS011;22044;48.298;10.008;2023-05-13T06:54:08;12.67;;;10.07;;
35961;SDS011;22044;48.298;10.008;2023-05-13T06:56:55;12.03;;;10.17;;
35961;SDS011;22044;48.298;10.008;2023-05-13T06:59:43;11.70;;;10.20;;
35961;SDS011;22044;48.298;10.008;2023-05-13T07:02:28;11.80;;;9.57;;
35961;SDS011;22044;48.298;10.008;2023-05-13T07:05:14;12.13;;;10.30;;
35961;SDS011;22044;48.298;10.008;2023-05-13T07:07:59;14.80;;;9.60;;
35961;SDS011;22044;48.298;10.008;2023-05-13T07:10:49;14.03;;;10.47;;
35961;SDS011;22044;48.298;10.008;2023-05-13T07:13:36;11.67;;;10.43;;
35961;SDS011;22044;48.298;10.008;2023-05-13T07:16:21;12.97;;;10.30;;
35961;SDS011;22044;48.298;10.008;2023-05-13T07:19:07;12.83;;;11.23;;
35961;SDS011;22044;48.298;10.008;2023-05-13T07:21:53;12.90;;;10.27;;
35961;SDS011;22044;48.298;10.008;2023-05-13T07:24:38;10.67;;;9.57;;
35961;SDS011;22044;48.298;10.008;2023-05-13T07:27:25;11.73;;;9.97;;
35961;SDS011;22044;48.298;10.008;2023-05-13T07:30:12;12.07;;;10.03;;
35961;SDS011;22044;48.298;10.008;2023-05-13T07:32:58;11.53;;;10.17;;
35961;SDS011;22044;48.298;10.008;2023-05-13T07:35:45;11.37;;;10.17;;
35961;SDS011;22044;48.298;10.008;2023-05-13T07:38:30;10.70;;;9.10;;
35961;SDS011;22044;48.298;10.008;2023-05-13T07:41:16;10.60;;;9.50;;
35961;SDS011;22044;48.298;10.008;2023-05-13T07:44:01;12.73;;;9.77;;
35961;SDS011;22044;48.298;10.008;2023-05-13T07:46:49;12.30;;;9.77;;
35961;SDS011;22044;48.298;10.008;2023-05-13T07:49:36;10.63;;;9.53;;
35961;SDS011;22044;48.298;10.008;2023-05-13T07:52:22;11.20;;;10.03;;
35961;SDS011;22044;48.298;10.008;2023-05-13T07:55:07;10.57;;;9.47;;
35961;SDS011;22044;48.298;10.008;2023-05-13T07:57:54;12.43;;;10.83;;
35961;SDS011;22044;48.298;10.008;2023-05-13T08:00:39;11.60;;;9.87;;
35961;SDS011;22044;48.298;10.008;2023-05-13T08:03:26;11.20;;;10.10;;
35961;SDS011;22044;48.298;10.008;2023-05-13T08:06:12;12.77;;;10.23;;
35961;SDS011;22044;48.298;10.008;2023-05-13T08:08:58;11.63;;;10.43;;
35961;SDS011;22044;48.298;10.008;2023-05-13T08:11:44;14.10;;;11.77;;
35961;SDS011;22044;48.298;10.008;2023-05-13T08:14:29;13.87;;;12.00;;
35961;SDS011;22044;48.298;10.008;2023-05-13T08:17:15;13.80;;;11.83;;
35961;SDS011;22044;48.298;10.008;2023-05-13T08:20:03;13.03;;;11.43;;
35961;SDS011;22044;48.298;10.008;2023-05-13T08:22:50;14.43;;;12.33;;
35961;SDS011;22044;48.298;10.008;2023-05-13T08:25:35;13.10;;;11.57;;
35961;SDS011;22044;48.298;10.008;2023-05-13T08:28:21;12.77;;;11.47;;
35961;SDS011;22044;48.298;10.008;2023-05-13T08:31:07;13.27;;;11.87;;
35961;SDS011;22044;48.298;10.008;2023-05-13T08:33:52;15.00;;;12.60;;
35961;SDS011;22044;48.298;10.008;2023-05-13T08:36:39;14.23;;;11.80;;
35961;SDS011;22044;48.298;10.008;2023-05-13T08:39:24;12.40;;;11.10;;
35961;SDS011;22044;48.298;10.008;2023-05-13T08:42:10;15.03;;;12.00;;
35961;SDS011;22044;48.298;10.008;2023-05-13T08:44:58;13.43;;;12.03;;
35961;SDS011;22044;48.298;10.008;2023-05-13T08:47:49;13.30;;;11.63;;
35961;SDS011;22044;48.298;10.008;2023-05-13T08:50:36;12.70;;;11.47;;
35961;SDS011;22044;48.298;10.008;2023-05-13T08:53:24;14.43;;;11.90;;
35961;SDS011;22044;48.298;10.008;2023-05-13T08:56:10;15.73;;;11.43;;
35961;SDS011;22044;48.298;10.008;2023-05-13T08:58:55;11.47;;;10.37;;
35961;SDS011;22044;48.298;10.008;2023-05-13T09:01:41;13.03;;;10.90;;
35961;SDS011;22044;48.298;10.008;2023-05-13T09:04:27;13.93;;;10.80;;
35961;SDS011;22044;48.298;10.008;2023-05-13T09:07:13;11.90;;;10.57;;
35961;SDS011;22044;48.298;10.008;2023-05-13T09:10:00;12.10;;;10.60;;
35961;SDS011;22044;48.298;10.008;2023-05-13T09:12:47;12.23;;;10.93;;
35961;SDS011;22044;48.298;10.008;2023-05-13T09:15:33;11.27;;;10.27;;
35961;SDS011;22044;48.298;10.008;2023-05-13T09:18:19;14.30;;;11.37;;
35961;SDS011;22044;48.298;10.008;2023-05-13T09:24:08;12.43;;;11.17;;
35961;SDS011;22044;48.298;10.008;2023-05-13T09:26:57;10.40;;;9.33;;
35961;SDS011;22044;48.298;10.008;2023-05-13T09:29:42;13.27;;;10.63;;
35961;SDS011;22044;48.298;10.008;2023-05-13T09:32:28;11.97;;;10.67;;
35961;SDS011;22044;48.298;10.008;2023-05-13T09:35:14;14.10;;;12.03;;
35961;SDS011;22044;48.298;10.008;2023-05-13T09:38:00;12.40;;;11.20;;
35961;SDS011;22044;48.298;10.008;2023-05-13T09:40:55;14.40;;;12.30;;
35961;SDS011;22044;48.298;10.008;2023-05-13T09:43:43;12.17;;;10.93;;
35961;SDS011;22044;48.298;10.008;2023-05-13T09:46:29;12.03;;;10.83;;
35961;SDS011;22044;48.298;10.008;2023-05-13T09:49:17;12.13;;;10.43;;
35961;SDS011;22044;48.298;10.008;2023-05-13T09:52:06;12.20;;;11.00;;
35961;SDS011;22044;48.298;10.008;2023-05-13T09:54:55;12.83;;;10.43;;
35961;SDS011;22044;48.298;10.008;2023-05-13T09:57:41;13.63;;;10.97;;
35961;SDS011;22044;48.298;10.008;2023-05-13T10:00:27;11.83;;;10.63;;
35961;SDS011;22044;48.298;10.008;2023-05-13T10:03:14;12.10;;;10.90;;
35961;SDS011;22044;48.298;10.008;2023-05-13T10:05:59;12.43;;;11.23;;
35961;SDS011;22044;48.298;10.008;2023-05-13T10:08:46;12.67;;;10.60;;
35961;SDS011;22044;48.298;10.008;2023-05-13T10:11:33;11.53;;;10.33;;
35961;SDS011;22044;48.298;10.008;2023-05-13T10:14:20;13.87;;;11.03;;
35961;SDS011;22044;48.298;10.008;2023-05-13T10:17:07;11.73;;;10.53;;
35961;SDS011;22044;48.298;10.008;2023-05-13T10:19:53;15.77;;;11.10;;
35961;SDS011;22044;48.298;10.008;2023-05-13T10:22:39;11.70;;;10.53;;
35961;SDS011;22044;48.298;10.008;2023-05-13T10:25:24;11.30;;;10.20;;
35961;SDS011;22044;48.298;10.008;2023-05-13T10:28:11;12.80;;;11.50;;
35961;SDS011;22044;48.298;10.008;2023-05-13T10:30:58;11.23;;;10.20;;
35961;SDS011;22044;48.298;10.008;2023-05-13T10:33:45;12.20;;;10.90;;
35961;SDS011;22044;48.298;10.008;2023-05-13T10:36:35;11.50;;;10.40;;
35961;SDS011;22044;48.298;10.008;2023-05-13T10:39:47;12.23;;;10.70;;
35961;SDS011;22044;48.298;10.008;2023-05-13T10:43:00;11.70;;;10.60;;
35961;SDS011;22044;48.298;10.008;2023-05-13T10:45:55;12.47;;;11.20;;
35961;SDS011;22044;48.298;10.008;2023-05-13T10:48:45;14.30;;;12.80;;
35961;SDS011;22044;48.298;10.008;2023-05-13T10:51:33;13.47;;;12.17;;
35961;SDS011;22044;48.298;10.008;2023-05-13T10:54:19;13.93;;;11.47;;
35961;SDS011;22044;48.298;10.008;2023-05-13T10:57:07;12.97;;;11.67;;
35961;SDS011;22044;48.298;10.008;2023-05-13T11:00:12;13.90;;;12.50;;
35961;SDS011;22044;48.298;10.008;2023-05-13T11:03:07;13.20;;;11.47;;
35961;SDS011;22044;48.298;10.008;2023-05-13T11:05:59;12.37;;;11.17;;
35961;SDS011;22044;48.298;10.008;2023-05-13T11:08:57;12.53;;;11.33;;
35961;SDS011;22044;48.298;10.008;2023-05-13T11:11:45;12.73;;;11.53;;
35961;SDS011;22044;48.298;10.008;2023-05-13T11:14:32;13.70;;;12.30;;
35961;SDS011;22044;48.298;10.008;2023-05-13T11:17:17;12.97;;;11.77;;
35961;SDS011;22044;48.298;10.008;2023-05-13T11:20:04;13.50;;;11.70;;
35961;SDS011;22044;48.298;10.008;2023-05-13T11:22:52;13.33;;;11.93;;
35961;SDS011;22044;48.298;10.008;2023-05-13T11:25:37;12.70;;;11.47;;
35961;SDS011;22044;48.298;10.008;2023-05-13T11:31:44;11.87;;;10.77;;
35961;SDS011;22044;48.298;10.008;2023-05-13T11:34:31;12.47;;;11.17;;
35961;SDS011;22044;48.298;10.008;2023-05-13T11:37:17;11.37;;;10.27;;
35961;SDS011;22044;48.298;10.008;2023-05-13T11:40:06;12.23;;;11.07;;
35961;SDS011;22044;48.298;10.008;2023-05-13T11:42:54;11.30;;;10.27;;
35961;SDS011;22044;48.298;10.008;2023-05-13T11:45:39;10.67;;;9.57;;
35961;SDS011;22044;48.298;10.008;2023-05-13T11:48:25;9.97;;;9.07;;
35961;SDS011;22044;48.298;10.008;2023-05-13T11:51:11;10.30;;;9.40;;
35961;SDS011;22044;48.298;10.008;2023-05-13T11:54:00;10.70;;;9.70;;
35961;SDS011;22044;48.298;10.008;2023-05-13T11:56:47;10.07;;;9.10;;
35961;SDS011;22044;48.298;10.008;2023-05-13T11:59:33;10.13;;;9.23;;
35961;SDS011;22044;48.298;10.008;2023-05-13T12:02:19;9.87;;;8.97;;
35961;SDS011;22044;48.298;10.008;2023-05-13T12:05:05;10.13;;;9.13;;
35961;SDS011;22044;48.298;10.008;2023-05-13T12:07:56;9.67;;;8.70;;
35961;SDS011;22044;48.298;10.008;2023-05-13T12:10:42;9.13;;;8.33;;
35961;SDS011;22044;48.298;10.008;2023-05-13T12:13:29;8.90;;;8.10;;
35961;SDS011;22044;48.298;10.008;2023-05-13T12:16:14;9.37;;;8.57;;
35961;SDS011;22044;48.298;10.008;2023-05-13T12:19:03;8.23;;;7.43;;
35961;SDS011;22044;48.298;10.008;2023-05-13T12:21:49;7.90;;;7.20;;
35961;SDS011;22044;48.298;10.008;2023-05-13T12:24:35;8.40;;;7.60;;
35961;SDS011;22044;48.298;10.008;2023-05-13T12:27:20;8.83;;;7.87;;
35961;SDS011;22044;48.298;10.008;2023-05-13T12:30:11;8.67;;;7.87;;
35961;SDS011;22044;48.298;10.008;2023-05-13T12:32:58;8.33;;;7.63;;
35961;SDS011;22044;48.298;10.008;2023-05-13T12:35:45;8.40;;;7.70;;
35961;SDS011;22044;48.298;10.008;2023-05-13T12:38:32;9.00;;;8.20;;
35961;SDS011;22044;48.298;10.008;2023-05-13T12:41:20;8.63;;;7.93;;
35961;SDS011;22044;48.298;10.008;2023-05-13T12:44:06;9.13;;;8.33;;
35961;SDS011;22044;48.298;10.008;2023-05-13T12:46:55;9.07;;;8.27;;
35961;SDS011;22044;48.298;10.008;2023-05-13T12:49:52;8.23;;;7.53;;
35961;SDS011;22044;48.298;10.008;2023-05-13T12:52:38;9.80;;;8.97;;
35961;SDS011;22044;48.298;10.008;2023-05-13T12:55:24;9.60;;;8.60;;
35961;SDS011;22044;48.298;10.008;2023-05-13T12:58:10;9.23;;;8.43;;
35961;SDS011;22044;48.298;10.008;2023-05-13T13:00:56;8.03;;;7.43;;
35961;SDS011;22044;48.298;10.008;2023-05-13T13:03:44;8.37;;;7.67;;
35961;SDS011;22044;48.298;10.008;2023-05-13T13:06:29;8.27;;;7.47;;
35961;SDS011;22044;48.298;10.008;2023-05-13T13:09:16;9.33;;;8.53;;
35961;SDS011;22044;48.298;10.008;2023-05-13T13:12:02;8.37;;;7.67;;
35961;SDS011;22044;48.298;10.008;2023-05-13T13:14:47;8.00;;;7.30;;
35961;SDS011;22044;48.298;10.008;2023-05-13T13:17:34;7.20;;;6.60;;
35961;SDS011;22044;48.298;10.008;2023-05-13T13:20:21;11.23;;;7.30;;
35961;SDS011;22044;48.298;10.008;2023-05-13T13:23:07;7.40;;;6.80;;
35961;SDS011;22044;48.298;10.008;2023-05-13T13:25:52;7.73;;;7.03;;
35961;SDS011;22044;48.298;10.008;2023-05-13T13:28:38;8.00;;;7.30;;
35961;SDS011;22044;48.298;10.008;2023-05-13T13:31:24;7.27;;;6.67;;
35961;SDS011;22044;48.298;10.008;2023-05-13T13:34:10;8.47;;;7.70;;
35961;SDS011;22044;48.298;10.008;2023-05-13T13:36:57;7.50;;;6.90;;
35961;SDS011;22044;48.298;10.008;2023-05-13T13:39:42;7.60;;;7.00;;
35961;SDS011;22044;48.298;10.008;2023-05-13T13:42:28;7.50;;;6.83;;
35961;SDS011;22044;48.298;10.008;2023-05-13T13:45:14;9.20;;;7.10;;
35961;SDS011;22044;48.298;10.008;2023-05-13T13:47:59;7.47;;;6.87;;
35961;SDS011;22044;48.298;10.008;2023-05-13T13:50:45;6.80;;;6.30;;
35961;SDS011;22044;48.298;10.008;2023-05-13T13:53:32;7.40;;;6.77;;
35961;SDS011;22044;48.298;10.008;2023-05-13T13:56:18;6.70;;;6.10;;
35961;SDS011;22044;48.298;10.008;2023-05-13T13:59:04;6.87;;;6.17;;
35961;SDS011;22044;48.298;10.008;2023-05-13T14:01:49;6.67;;;6.17;;
35961;SDS011;22044;48.298;10.008;2023-05-13T14:04:36;6.73;;;6.10;;
35961;SDS011;22044;48.298;10.008;2023-05-13T14:07:22;6.83;;;6.27;;
35961;SDS011;22044;48.298;10.008;2023-05-13T14:10:09;7.13;;;6.50;;
35961;SDS011;22044;48.298;10.008;2023-05-13T14:12:55;7.17;;;6.43;;
35961;SDS011;22044;48.298;10.008;2023-05-13T14:15:40;7.87;;;7.10;;
35961;SDS011;22044;48.298;10.008;2023-05-13T14:18:26;7.33;;;6.73;;
35961;SDS011;22044;48.298;10.008;2023-05-13T14:21:12;6.53;;;5.93;;
35961;SDS011;22044;48.298;10.008;2023-05-13T14:23:57;7.43;;;6.83;;
35961;SDS011;22044;48.298;10.008;2023-05-13T14:26:45;6.50;;;5.90;;
35961;SDS011;22044;48.298;10.008;2023-05-13T14:29:30;6.60;;;6.10;;
35961;SDS011;22044;48.298;10.008;2023-05-13T14:32:16;6.70;;;6.10;;
35961;SDS011;22044;48.298;10.008;2023-05-13T14:35:02;6.83;;;6.23;;
35961;SDS011;22044;48.298;10.008;2023-05-13T14:37:48;6.10;;;5.60;;
35961;SDS011;22044;48.298;10.008;2023-05-13T14:40:33;6.53;;;5.93;;
35961;SDS011;22044;48.298;10.008;2023-05-13T14:43:21;5.97;;;5.30;;
35961;SDS011;22044;48.298;10.008;2023-05-13T14:46:06;5.50;;;5.10;;
35961;SDS011;22044;48.298;10.008;2023-05-13T14:48:52;5.37;;;4.97;;
35961;SDS011;22044;48.298;10.008;2023-05-13T14:51:38;6.13;;;5.63;;
35961;SDS011;22044;48.298;10.008;2023-05-13T14:54:23;6.30;;;5.70;;
35961;SDS011;22044;48.298;10.008;2023-05-13T14:57:09;5.33;;;4.90;;
35961;SDS011;22044;48.298;10.008;2023-05-13T14:59:56;5.80;;;5.30;;
35961;SDS011;22044;48.298;10.008;2023-05-13T15:02:41;4.90;;;4.50;;
35961;SDS011;22044;48.298;10.008;2023-05-13T15:05:27;5.03;;;4.53;;
35961;SDS011;22044;48.298;10.008;2023-05-13T15:08:13;5.30;;;4.80;;
35961;SDS011;22044;48.298;10.008;2023-05-13T15:10:59;4.80;;;4.40;;
35961;SDS011;22044;48.298;10.008;2023-05-13T15:13:44;6.33;;;4.70;;
35961;SDS011;22044;48.298;10.008;2023-05-13T15:16:31;5.20;;;4.80;;
35961;SDS011;22044;48.298;10.008;2023-05-13T15:19:17;4.90;;;4.40;;
35961;SDS011;22044;48.298;10.008;2023-05-13T15:22:03;4.77;;;4.37;;
35961;SDS011;22044;48.298;10.008;2023-05-13T15:24:49;5.17;;;4.77;;
35961;SDS011;22044;48.298;10.008;2023-05-13T15:27:34;5.23;;;4.20;;
35961;SDS011;22044;48.298;10.008;2023-05-13T15:30:20;4.93;;;4.40;;
35961;SDS011;22044;48.298;10.008;2023-05-13T15:33:07;5.43;;;3.90;;
35961;SDS011;22044;48.298;10.008;2023-05-13T15:35:52;4.30;;;4.00;;
35961;SDS011;22044;48.298;10.008;2023-05-13T15:38:38;4.53;;;3.90;;
35961;SDS011;22044;48.298;10.008;2023-05-13T15:41:24;4.53;;;4.13;;
35961;SDS011;22044;48.298;10.008;2023-05-13T15:44:10;4.90;;;3.70;;
35961;SDS011;22044;48.298;10.008;2023-05-13T15:46:56;4.20;;;3.80;;
35961;SDS011;22044;48.298;10.008;2023-05-13T15:49:43;4.90;;;3.80;;
35961;SDS011;22044;48.298;10.008;2023-05-13T15:52:28;4.57;;;4.17;;
35961;SDS011;22044;48.298;10.008;2023-05-13T15:55:14;5.00;;;4.60;;
35961;SDS011;22044;48.298;10.008;2023-05-13T15:58:00;4.53;;;4.17;;
35961;SDS011;22044;48.298;10.008;2023-05-13T16:00:45;4.30;;;3.93;;
35961;SDS011;22044;48.298;10.008;2023-05-13T16:03:31;4.47;;;4.03;;
35961;SDS011;22044;48.298;10.008;2023-05-13T16:06:18;4.90;;;4.10;;
35961;SDS011;22044;48.298;10.008;2023-05-13T16:09:03;4.77;;;4.27;;
35961;SDS011;22044;48.298;10.008;2023-05-13T16:11:49;4.63;;;3.80;;
35961;SDS011;22044;48.298;10.008;2023-05-13T16:14:34;6.00;;;4.40;;
35961;SDS011;22044;48.298;10.008;2023-05-13T16:17:20;4.70;;;4.30;;
35961;SDS011;22044;48.298;10.008;2023-05-13T16:20:06;5.00;;;4.57;;
35961;SDS011;22044;48.298;10.008;2023-05-13T16:22:54;4.60;;;4.20;;
35961;SDS011;22044;48.298;10.008;2023-05-13T16:25:40;4.47;;;4.07;;
35961;SDS011;22044;48.298;10.008;2023-05-13T16:28:27;5.50;;;5.00;;